createdAt,value
2023-03-29T00:04:17.595Z,1.43
2023-03-29T00:09:17.552Z,1.56
2023-03-29T00:14:17.499Z,1.62
2023-03-29T00:19:17.561Z,1.62
2023-03-29T00:24:17.505Z,1.62
2023-03-29T00:29:17.511Z,1.75
2023-03-29T00:34:17.490Z,1.75
2023-03-29T00:39:17.502Z,1.87
2023-03-29T00:44:17.502Z,1.87
2023-03-29T00:49:17.492Z,1.93
2023-03-29T00:54:17.499Z,2.12
2023-03-29T00:59:17.489Z,1.93
2023-03-29T01:04:17.508Z,2.81
2023-03-29T01:09:17.468Z,3.5
2023-03-29T01:14:17.483Z,3.62
2023-03-29T01:19:17.476Z,3.5
2023-03-29T01:24:17.470Z,3.43
2023-03-29T01:29:17.493Z,3.25
2023-03-29T01:34:17.465Z,2.93
2023-03-29T01:39:17.465Z,2.62
2023-03-29T01:44:17.498Z,2.37
2023-03-29T01:49:17.465Z,2.43
2023-03-29T01:54:17.476Z,2.18
2023-03-29T01:59:17.478Z,2.18
2023-03-29T02:04:17.459Z,2.12
2023-03-29T02:09:17.450Z,2.12
2023-03-29T02:14:17.455Z,2.18
2023-03-29T02:19:17.451Z,2.31
2023-03-29T02:24:17.446Z,2.12
2023-03-29T02:29:17.445Z,2.31
2023-03-29T02:34:17.453Z,2.12
2023-03-29T02:39:17.440Z,2.06
2023-03-29T02:44:17.433Z,2
2023-03-29T02:49:17.472Z,2.25
2023-03-29T02:54:17.430Z,1.93
2023-03-29T02:59:17.430Z,1.93
2023-03-29T03:04:17.430Z,1.93
2023-03-29T03:09:17.423Z,2
2023-03-29T03:14:17.433Z,1.93
2023-03-29T03:19:17.402Z,1.87
2023-03-29T03:24:17.423Z,2
2023-03-29T03:29:17.432Z,1.81
2023-03-29T03:34:17.395Z,1.87
2023-03-29T03:39:17.548Z,1.87
2023-03-29T03:44:17.414Z,1.81
2023-03-29T03:49:17.387Z,1.68
2023-03-29T03:54:17.398Z,1.68
2023-03-29T03:59:17.385Z,1.68
2023-03-29T04:04:17.429Z,1.68
2023-03-29T04:09:17.387Z,1.68
2023-03-29T04:14:17.377Z,1.68
2023-03-29T04:19:17.375Z,1.68
2023-03-29T04:24:17.398Z,1.56
2023-03-29T04:29:17.364Z,1.56
2023-03-29T04:34:17.361Z,1.68
2023-03-29T04:39:17.418Z,1.56
2023-03-29T04:44:17.381Z,1.62
2023-03-29T04:49:17.348Z,1.56
2023-03-29T04:54:17.376Z,1.68
2023-03-29T04:59:17.372Z,1.62
2023-03-29T05:04:17.352Z,1.68
2023-03-29T05:09:17.351Z,1.81
2023-03-29T05:14:17.360Z,1.93
2023-03-29T05:19:17.345Z,2
2023-03-29T05:24:17.355Z,2
2023-03-29T05:29:17.340Z,2.18
2023-03-29T05:34:17.333Z,2.06
2023-03-29T05:39:17.334Z,2.06
2023-03-29T05:44:17.354Z,2.31
2023-03-29T05:49:17.332Z,2.25
2023-03-29T05:54:17.319Z,2.31
2023-03-29T05:59:17.329Z,2.56
2023-03-29T06:04:17.368Z,2.56
2023-03-29T06:09:17.311Z,2.68
2023-03-29T06:14:17.344Z,2.75
2023-03-29T06:19:17.329Z,2.75
2023-03-29T06:24:17.301Z,2.93
2023-03-29T06:29:17.332Z,3.06
2023-03-29T06:34:17.310Z,3.25
2023-03-29T06:39:17.308Z,3.31
2023-03-29T06:44:17.307Z,3.25
2023-03-29T06:49:17.332Z,3.37
2023-03-29T06:54:17.292Z,3.31
2023-03-29T06:59:17.303Z,3.37
2023-03-29T07:04:17.306Z,3.56
2023-03-29T07:09:19.409Z,3.75
2023-03-29T07:14:17.298Z,3.68
2023-03-29T07:19:17.273Z,3.87
2023-03-29T07:24:17.259Z,4.25
2023-03-29T07:29:17.258Z,4.31
2023-03-29T07:34:17.253Z,4.75
2023-03-29T07:39:17.275Z,4.87
2023-03-29T07:44:17.256Z,5.43
2023-03-29T07:49:17.239Z,5.93
2023-03-29T07:54:17.244Z,5.93
2023-03-29T07:59:17.232Z,6.37
2023-03-29T08:04:17.305Z,6.5
2023-03-29T08:09:17.245Z,6.93
2023-03-29T08:14:17.278Z,7.5
2023-03-29T08:19:17.223Z,7.87
2023-03-29T08:24:20.464Z,7.81
2023-03-29T08:29:17.267Z,8.06
2023-03-29T08:34:17.234Z,8.56
2023-03-29T08:39:19.115Z,9.25
2023-03-29T08:44:17.219Z,9.62
2023-03-29T08:49:17.192Z,9.37
2023-03-29T08:54:17.184Z,9.06
2023-03-29T08:59:17.198Z,8.81
2023-03-29T09:04:17.194Z,9.12
2023-03-29T09:09:17.156Z,9.18
2023-03-29T09:14:17.199Z,9.68
2023-03-29T09:19:22.196Z,9.81
2023-03-29T09:24:17.148Z,10.31
2023-03-29T09:29:17.166Z,10
2023-03-29T09:34:17.159Z,10.87
2023-03-29T09:39:17.139Z,11.31
2023-03-29T09:44:28.076Z,11.62
2023-03-29T09:49:17.467Z,12.06
2023-03-29T09:54:17.149Z,11.62
2023-03-29T09:59:17.152Z,11.62
2023-03-29T10:04:17.143Z,11.56
2023-03-29T10:09:17.126Z,11.81
2023-03-29T10:14:17.124Z,11.5
2023-03-29T10:19:17.136Z,11.87
2023-03-29T10:24:17.095Z,11.87
2023-03-29T10:29:17.098Z,12
2023-03-29T10:34:17.101Z,12.06
2023-03-29T10:49:17.104Z,13.43
2023-03-29T10:54:17.051Z,12.81
2023-03-29T10:59:17.059Z,13.62
2023-03-29T11:04:17.035Z,14.06
2023-03-29T11:09:17.064Z,13
2023-03-29T11:14:17.029Z,13.56
2023-03-29T11:19:17.062Z,14
2023-03-29T11:24:17.019Z,14.25
2023-03-29T11:29:17.014Z,14.31
2023-03-29T11:34:17.004Z,14
2023-03-29T11:39:17.017Z,13.56
2023-03-29T11:44:16.997Z,14.5
2023-03-29T11:49:16.999Z,13.06
2023-03-29T11:54:17.006Z,13.62
2023-03-29T11:59:17.004Z,14.06
2023-03-29T12:04:16.971Z,13.87
2023-03-29T12:09:17.023Z,14.12
2023-03-29T12:14:16.984Z,13.93
2023-03-29T12:19:16.968Z,13.81
2023-03-29T12:24:16.940Z,13.5
2023-03-29T12:29:16.943Z,14.18
2023-03-29T12:34:16.970Z,14.18
2023-03-29T12:39:16.959Z,13.5
2023-03-29T12:44:16.942Z,13
2023-03-29T12:49:18.658Z,13.68
2023-03-29T12:54:17.096Z,13.93
2023-03-29T12:59:16.922Z,13.81
2023-03-29T13:04:16.904Z,13.93
2023-03-29T13:09:16.901Z,14.37
2023-03-29T13:14:16.912Z,14.06
2023-03-29T13:19:16.894Z,14.37
2023-03-29T13:24:16.895Z,13.87
2023-03-29T13:29:16.894Z,13.56
2023-03-29T13:34:16.882Z,13.31
2023-03-29T13:39:16.863Z,13.62
2023-03-29T13:44:16.886Z,13.37
2023-03-29T13:49:16.877Z,13.43
2023-03-29T13:54:16.843Z,13.5
2023-03-29T13:59:16.848Z,13.5
2023-03-29T14:04:16.872Z,13.81
2023-03-29T14:09:16.833Z,14.31
2023-03-29T14:14:16.828Z,14
2023-03-29T14:19:16.837Z,14.5
2023-03-29T14:24:16.850Z,14.5
2023-03-29T14:29:16.807Z,14.31
2023-03-29T14:39:16.810Z,14.06
2023-03-29T14:44:16.772Z,14.06
2023-03-29T14:49:16.800Z,14.25
2023-03-29T14:54:16.766Z,14.25
2023-03-29T14:59:16.755Z,14.06
2023-03-29T15:04:16.769Z,14
2023-03-29T15:09:16.783Z,14.56
2023-03-29T15:14:16.744Z,14.37
2023-03-29T15:19:16.760Z,14.25
2023-03-29T15:24:16.726Z,13.93
2023-03-29T15:29:16.741Z,13.87
2023-03-29T15:34:16.740Z,13.43
2023-03-29T15:39:16.706Z,13.37
2023-03-29T15:44:16.700Z,13.31
2023-03-29T15:49:16.730Z,13.12
2023-03-29T15:54:16.690Z,13.06
2023-03-29T15:59:16.701Z,13.12
2023-03-29T16:04:16.749Z,12.93
2023-03-29T16:09:16.688Z,12.81
2023-03-29T16:14:16.713Z,12.62
2023-03-29T16:19:16.676Z,12.12
2023-03-29T16:24:16.709Z,11.93
2023-03-29T16:29:16.676Z,11.87
2023-03-29T16:34:16.657Z,11.93
2023-03-29T16:39:16.682Z,11.68
2023-03-29T16:44:16.621Z,11.56
2023-03-29T16:49:16.725Z,11.5
2023-03-29T16:54:16.656Z,11.31
2023-03-29T16:59:16.634Z,11.06
2023-03-29T17:04:16.646Z,10.93
2023-03-29T17:09:16.619Z,10.93
2023-03-29T17:14:16.595Z,10.93
2023-03-29T17:19:16.599Z,10.81
2023-03-29T17:24:16.598Z,10.81
2023-03-29T17:29:16.586Z,10.81
2023-03-29T17:34:16.623Z,10.81
2023-03-29T17:39:16.587Z,10.56
2023-03-29T17:44:16.572Z,10.56
2023-03-29T17:49:16.562Z,10.56
2023-03-29T17:54:16.583Z,10.43
2023-03-29T17:59:16.556Z,10.43
2023-03-29T18:04:16.575Z,10.31
2023-03-29T18:09:16.563Z,10.37
2023-03-29T18:14:16.590Z,10.06
2023-03-29T18:19:16.553Z,9.68
2023-03-29T18:24:16.571Z,9.31
2023-03-29T18:29:16.549Z,9.31
2023-03-29T18:34:16.521Z,9.12
2023-03-29T18:39:16.540Z,9
2023-03-29T18:44:16.564Z,8.93
2023-03-29T18:49:16.561Z,8.93
2023-03-29T18:54:16.517Z,9.06
2023-03-29T18:59:16.537Z,8.87
2023-03-29T19:04:16.508Z,8.93
2023-03-29T19:09:16.502Z,8.87
2023-03-29T19:14:16.514Z,8.68
2023-03-29T19:19:16.496Z,8.75
2023-03-29T19:24:16.527Z,8.81
2023-03-29T19:29:16.481Z,8.68
2023-03-29T19:34:16.459Z,8.56
2023-03-29T19:39:16.447Z,8.62
2023-03-29T19:44:16.454Z,8.62
2023-03-29T19:49:16.463Z,8.62
2023-03-29T19:54:16.430Z,8.56
2023-03-29T19:59:16.471Z,8.5
2023-03-29T20:04:16.418Z,8.56
2023-03-29T20:09:16.409Z,8.68
2023-03-29T20:14:16.448Z,8.56
2023-03-29T20:19:16.423Z,8.43
2023-03-29T20:24:16.398Z,8.37
2023-03-29T20:29:16.429Z,8.31
2023-03-29T20:34:16.385Z,8.12
2023-03-29T20:39:16.389Z,8.06
2023-03-29T20:44:16.374Z,8
2023-03-29T20:49:16.387Z,7.93
2023-03-29T20:54:16.369Z,7.93
2023-03-29T20:59:16.388Z,8
2023-03-29T21:04:16.366Z,7.87
2023-03-29T21:09:16.530Z,7.87
2023-03-29T21:14:16.386Z,7.87
2023-03-29T21:19:16.356Z,7.93
2023-03-29T21:24:16.353Z,7.81
2023-03-29T21:29:16.403Z,7.75
2023-03-29T21:34:16.340Z,7.75
2023-03-29T21:39:16.361Z,7.56
2023-03-29T21:44:16.338Z,7.43
2023-03-29T21:49:16.330Z,7.18
2023-03-29T21:54:16.306Z,7.37
2023-03-29T21:59:16.338Z,7.56
2023-03-29T22:04:25.736Z,7.56
2023-03-29T22:09:16.328Z,7.62
2023-03-29T22:14:16.305Z,7.68
2023-03-29T22:19:16.308Z,7.81
2023-03-29T22:24:16.364Z,7.75
2023-03-29T22:29:16.288Z,7.75
2023-03-29T22:34:16.299Z,7.68
2023-03-29T22:39:16.288Z,7.68
2023-03-29T22:44:16.293Z,7.75
2023-03-29T22:49:16.308Z,7.87
2023-03-29T22:54:16.313Z,8
2023-03-29T22:59:16.271Z,8.06
2023-03-29T23:04:16.315Z,8.18
2023-03-29T23:09:16.643Z,8.25
2023-03-29T23:14:16.253Z,8.31
2023-03-29T23:19:16.652Z,8.31
2023-03-29T23:24:18.803Z,8.31
2023-03-29T23:29:16.222Z,8.31
2023-03-29T23:34:16.233Z,8.25
2023-03-29T23:39:16.251Z,8.18
2023-03-29T23:44:16.259Z,8.18
2023-03-29T23:49:16.234Z,8.12
2023-03-29T23:54:16.212Z,8.12
2023-03-29T23:59:16.206Z,8.12
